Decoded Metar for YSWG (WAGGA WAGGA in AUSTRALIA) (IATA:WGA) | Meteo·Mobile Aviation Weather
aviador You're here:

YSWG Decoded Metar

WAGGA WAGGA in AUSTRALIA
Report Time2018-08-19 04:08:00
UTC Time2018-08-19 04:28:11
Flight Rules vfr VFR
Wind230° at 20 Gusting to 30 kt
W.Decomp.*RWY 23: 19.6 kt HW 4.2 kt LCW
RWY 30: 2.8 kt HW 19.8 kt LCW
W.Rank230° ranks 10
Current wind is above 230° avg. (8.6)
Visibility9999 m
Phenomena:N/A
Clouds:Scattered 038 Hf
Scattered 047 Hf
Overcast 058 Hf
Expected CloudBase > 3,200 ft AGL from Temp-Dew spread
Ceiling5,800 ft
Temp10°C (ISA -4)
Dew Point02°C (58% RH)
AAT1.1°C
QNH1017 hPa
Density Alt233 ft
Elevation699 ft
Report Wrong Elevation
Raw Report
SPECI YSWG 190408Z AUTO 23020G30KT 9999 // SCT038 SCT047 OVC058 10/02 Q1017=

Extra information for YSWG:More info

Metar Taf Metar & Taf Last 4 Metars F.Rules Stats Wind Profile Meteogram Temp Stats Airport Information Weather charts Add Link Nearby VenuesMetar ALERT Operation Metar Decoded Social comments